sensor_id;sensor_type;location;lat;lon;timestamp;P1;durP1;ratioP1;P2;durP2;ratioP2
6850;SDS011;3464;42.728;23.296;2023-08-07T00:00:59;8.10;;;2.10;;
6850;SDS011;3464;42.728;23.296;2023-08-07T00:03:26;8.37;;;2.30;;
6850;SDS011;3464;42.728;23.296;2023-08-07T00:05:52;8.40;;;1.97;;
6850;SDS011;3464;42.728;23.296;2023-08-07T00:08:19;8.50;;;2.20;;
6850;SDS011;3464;42.728;23.296;2023-08-07T00:10:45;7.93;;;2.30;;
6850;SDS011;3464;42.728;23.296;2023-08-07T00:13:12;8.40;;;2.20;;
6850;SDS011;3464;42.728;23.296;2023-08-07T00:15:39;8.53;;;2.30;;
6850;SDS011;3464;42.728;23.296;2023-08-07T00:18:05;9.00;;;2.33;;
6850;SDS011;3464;42.728;23.296;2023-08-07T00:20:32;7.93;;;2.17;;
6850;SDS011;3464;42.728;23.296;2023-08-07T00:22:58;9.50;;;2.83;;
6850;SDS011;3464;42.728;23.296;2023-08-07T00:25:25;7.80;;;2.20;;
6850;SDS011;3464;42.728;23.296;2023-08-07T00:27:52;8.23;;;2.53;;
6850;SDS011;3464;42.728;23.296;2023-08-07T00:30:18;8.53;;;2.70;;
6850;SDS011;3464;42.728;23.296;2023-08-07T00:32:46;9.53;;;3.50;;
6850;SDS011;3464;42.728;23.296;2023-08-07T00:35:12;8.63;;;2.60;;
6850;SDS011;3464;42.728;23.296;2023-08-07T00:37:39;8.87;;;2.83;;
6850;SDS011;3464;42.728;23.296;2023-08-07T00:40:06;8.27;;;2.53;;
6850;SDS011;3464;42.728;23.296;2023-08-07T00:42:33;9.40;;;2.50;;
6850;SDS011;3464;42.728;23.296;2023-08-07T00:44:59;10.63;;;3.00;;
6850;SDS011;3464;42.728;23.296;2023-08-07T00:47:27;8.97;;;2.53;;
6850;SDS011;3464;42.728;23.296;2023-08-07T00:49:53;9.53;;;2.77;;
6850;SDS011;3464;42.728;23.296;2023-08-07T00:52:20;10.67;;;3.70;;
6850;SDS011;3464;42.728;23.296;2023-08-07T00:54:46;9.30;;;3.17;;
6850;SDS011;3464;42.728;23.296;2023-08-07T00:57:13;9.37;;;3.63;;
6850;SDS011;3464;42.728;23.296;2023-08-07T00:59:41;9.57;;;3.70;;
6850;SDS011;3464;42.728;23.296;2023-08-07T01:02:07;9.80;;;3.50;;
6850;SDS011;3464;42.728;23.296;2023-08-07T01:04:34;14.93;;;3.70;;
6850;SDS011;3464;42.728;23.296;2023-08-07T01:07:00;8.73;;;3.20;;
6850;SDS011;3464;42.728;23.296;2023-08-07T01:09:27;10.00;;;3.70;;
6850;SDS011;3464;42.728;23.296;2023-08-07T01:11:55;9.43;;;3.63;;
6850;SDS011;3464;42.728;23.296;2023-08-07T01:14:28;11.77;;;3.73;;
6850;SDS011;3464;42.728;23.296;2023-08-07T01:16:57;9.60;;;3.97;;
6850;SDS011;3464;42.728;23.296;2023-08-07T01:19:24;9.57;;;3.40;;
6850;SDS011;3464;42.728;23.296;2023-08-07T01:21:50;9.97;;;4.20;;
6850;SDS011;3464;42.728;23.296;2023-08-07T01:24:16;10.70;;;4.10;;
6850;SDS011;3464;42.728;23.296;2023-08-07T01:26:43;10.50;;;3.80;;
6850;SDS011;3464;42.728;23.296;2023-08-07T01:29:14;10.60;;;4.30;;
6850;SDS011;3464;42.728;23.296;2023-08-07T01:31:39;10.03;;;4.40;;
6850;SDS011;3464;42.728;23.296;2023-08-07T01:34:06;10.60;;;4.33;;
6850;SDS011;3464;42.728;23.296;2023-08-07T01:36:33;10.47;;;4.00;;
6850;SDS011;3464;42.728;23.296;2023-08-07T01:38:59;10.70;;;4.90;;
6850;SDS011;3464;42.728;23.296;2023-08-07T01:41:27;11.00;;;4.47;;
6850;SDS011;3464;42.728;23.296;2023-08-07T01:43:54;11.23;;;3.97;;
6850;SDS011;3464;42.728;23.296;2023-08-07T01:46:20;12.20;;;5.57;;
6850;SDS011;3464;42.728;23.296;2023-08-07T01:48:47;11.03;;;4.87;;
6850;SDS011;3464;42.728;23.296;2023-08-07T01:51:13;9.63;;;4.10;;
6850;SDS011;3464;42.728;23.296;2023-08-07T01:53:40;15.93;;;4.97;;
6850;SDS011;3464;42.728;23.296;2023-08-07T01:56:06;10.57;;;4.70;;
6850;SDS011;3464;42.728;23.296;2023-08-07T01:58:33;10.23;;;4.27;;
6850;SDS011;3464;42.728;23.296;2023-08-07T02:01:00;21.17;;;4.90;;
6850;SDS011;3464;42.728;23.296;2023-08-07T02:03:26;10.80;;;4.50;;
6850;SDS011;3464;42.728;23.296;2023-08-07T02:05:53;10.60;;;4.70;;
6850;SDS011;3464;42.728;23.296;2023-08-07T02:08:19;10.10;;;4.77;;
6850;SDS011;3464;42.728;23.296;2023-08-07T02:10:46;10.20;;;4.80;;
6850;SDS011;3464;42.728;23.296;2023-08-07T02:13:12;10.77;;;4.40;;
6850;SDS011;3464;42.728;23.296;2023-08-07T02:15:39;9.70;;;4.20;;
6850;SDS011;3464;42.728;23.296;2023-08-07T02:18:05;11.10;;;4.83;;
6850;SDS011;3464;42.728;23.296;2023-08-07T02:20:32;11.03;;;5.10;;
6850;SDS011;3464;42.728;23.296;2023-08-07T02:22:58;14.87;;;5.20;;
6850;SDS011;3464;42.728;23.296;2023-08-07T02:25:26;10.73;;;4.73;;
6850;SDS011;3464;42.728;23.296;2023-08-07T02:27:53;11.07;;;4.97;;
6850;SDS011;3464;42.728;23.296;2023-08-07T02:30:19;10.50;;;4.53;;
6850;SDS011;3464;42.728;23.296;2023-08-07T02:32:46;10.50;;;4.97;;
6850;SDS011;3464;42.728;23.296;2023-08-07T02:35:12;10.20;;;4.70;;
6850;SDS011;3464;42.728;23.296;2023-08-07T02:37:39;10.27;;;4.63;;
6850;SDS011;3464;42.728;23.296;2023-08-07T02:40:05;10.90;;;5.20;;
6850;SDS011;3464;42.728;23.296;2023-08-07T02:42:32;10.40;;;4.53;;
6850;SDS011;3464;42.728;23.296;2023-08-07T02:44:59;11.87;;;5.67;;
6850;SDS011;3464;42.728;23.296;2023-08-07T02:47:26;11.50;;;5.10;;
6850;SDS011;3464;42.728;23.296;2023-08-07T02:49:52;13.63;;;5.50;;
6850;SDS011;3464;42.728;23.296;2023-08-07T02:52:19;11.60;;;5.53;;
6850;SDS011;3464;42.728;23.296;2023-08-07T02:54:45;11.43;;;4.67;;
6850;SDS011;3464;42.728;23.296;2023-08-07T02:57:12;11.80;;;5.00;;
6850;SDS011;3464;42.728;23.296;2023-08-07T02:59:38;11.50;;;5.30;;
6850;SDS011;3464;42.728;23.296;2023-08-07T03:02:05;10.83;;;5.27;;
6850;SDS011;3464;42.728;23.296;2023-08-07T03:04:31;13.40;;;5.50;;
6850;SDS011;3464;42.728;23.296;2023-08-07T03:06:58;12.13;;;5.83;;
6850;SDS011;3464;42.728;23.296;2023-08-07T03:09:24;11.47;;;5.40;;
6850;SDS011;3464;42.728;23.296;2023-08-07T03:11:51;10.77;;;5.20;;
6850;SDS011;3464;42.728;23.296;2023-08-07T03:14:17;11.17;;;5.40;;
6850;SDS011;3464;42.728;23.296;2023-08-07T03:16:44;11.10;;;5.23;;
6850;SDS011;3464;42.728;23.296;2023-08-07T03:19:11;11.43;;;4.93;;
6850;SDS011;3464;42.728;23.296;2023-08-07T03:21:39;10.90;;;4.97;;
6850;SDS011;3464;42.728;23.296;2023-08-07T03:24:06;27.53;;;5.80;;
6850;SDS011;3464;42.728;23.296;2023-08-07T03:26:33;10.40;;;5.00;;
6850;SDS011;3464;42.728;23.296;2023-08-07T03:29:00;14.17;;;4.80;;
6850;SDS011;3464;42.728;23.296;2023-08-07T03:31:27;11.23;;;4.87;;
6850;SDS011;3464;42.728;23.296;2023-08-07T03:33:54;10.20;;;4.87;;
6850;SDS011;3464;42.728;23.296;2023-08-07T03:36:21;12.17;;;4.80;;
6850;SDS011;3464;42.728;23.296;2023-08-07T03:38:47;10.50;;;4.83;;
6850;SDS011;3464;42.728;23.296;2023-08-07T03:41:14;19.13;;;6.30;;
6850;SDS011;3464;42.728;23.296;2023-08-07T03:43:41;11.43;;;4.90;;
6850;SDS011;3464;42.728;23.296;2023-08-07T03:46:07;12.20;;;5.17;;
6850;SDS011;3464;42.728;23.296;2023-08-07T03:48:34;13.00;;;5.00;;
6850;SDS011;3464;42.728;23.296;2023-08-07T03:51:04;17.20;;;4.80;;
6850;SDS011;3464;42.728;23.296;2023-08-07T03:53:30;12.30;;;4.57;;
6850;SDS011;3464;42.728;23.296;2023-08-07T03:55:56;10.27;;;4.73;;
6850;SDS011;3464;42.728;23.296;2023-08-07T03:58:23;10.80;;;4.70;;
6850;SDS011;3464;42.728;23.296;2023-08-07T04:00:50;9.90;;;4.30;;
6850;SDS011;3464;42.728;23.296;2023-08-07T04:03:18;11.70;;;4.30;;
6850;SDS011;3464;42.728;23.296;2023-08-07T04:05:44;11.67;;;4.70;;
6850;SDS011;3464;42.728;23.296;2023-08-07T04:08:11;11.23;;;3.80;;
6850;SDS011;3464;42.728;23.296;2023-08-07T04:10:37;13.97;;;3.70;;
6850;SDS011;3464;42.728;23.296;2023-08-07T04:13:04;8.90;;;3.40;;
6850;SDS011;3464;42.728;23.296;2023-08-07T04:15:31;11.20;;;3.40;;
6850;SDS011;3464;42.728;23.296;2023-08-07T04:17:58;8.70;;;3.10;;
6850;SDS011;3464;42.728;23.296;2023-08-07T04:20:25;9.47;;;2.97;;
6850;SDS011;3464;42.728;23.296;2023-08-07T04:22:51;11.27;;;3.00;;
6850;SDS011;3464;42.728;23.296;2023-08-07T04:25:18;9.87;;;2.80;;
6850;SDS011;3464;42.728;23.296;2023-08-07T04:27:44;9.90;;;2.67;;
6850;SDS011;3464;42.728;23.296;2023-08-07T04:30:11;9.30;;;2.80;;
6850;SDS011;3464;42.728;23.296;2023-08-07T04:32:38;9.80;;;2.93;;
6850;SDS011;3464;42.728;23.296;2023-08-07T04:35:05;8.67;;;2.60;;
6850;SDS011;3464;42.728;23.296;2023-08-07T04:37:32;10.60;;;2.90;;
6850;SDS011;3464;42.728;23.296;2023-08-07T04:39:59;9.63;;;3.13;;
6850;SDS011;3464;42.728;23.296;2023-08-07T04:42:26;14.10;;;2.70;;
6850;SDS011;3464;42.728;23.296;2023-08-07T04:44:53;9.20;;;2.70;;
6850;SDS011;3464;42.728;23.296;2023-08-07T04:47:20;8.37;;;2.10;;
6850;SDS011;3464;42.728;23.296;2023-08-07T04:49:46;9.80;;;3.00;;
6850;SDS011;3464;42.728;23.296;2023-08-07T04:52:13;8.80;;;2.40;;
6850;SDS011;3464;42.728;23.296;2023-08-07T04:54:40;8.83;;;2.47;;
6850;SDS011;3464;42.728;23.296;2023-08-07T04:57:07;10.03;;;2.30;;
6850;SDS011;3464;42.728;23.296;2023-08-07T04:59:34;10.70;;;2.43;;
6850;SDS011;3464;42.728;23.296;2023-08-07T05:02:00;9.13;;;2.13;;
6850;SDS011;3464;42.728;23.296;2023-08-07T05:04:27;12.40;;;2.20;;
6850;SDS011;3464;42.728;23.296;2023-08-07T05:06:53;8.90;;;2.30;;
6850;SDS011;3464;42.728;23.296;2023-08-07T05:09:20;8.80;;;2.10;;
6850;SDS011;3464;42.728;23.296;2023-08-07T05:11:46;8.30;;;2.17;;
6850;SDS011;3464;42.728;23.296;2023-08-07T05:14:13;9.10;;;2.30;;
6850;SDS011;3464;42.728;23.296;2023-08-07T05:16:39;16.47;;;2.33;;
6850;SDS011;3464;42.728;23.296;2023-08-07T05:19:06;12.90;;;2.37;;
6850;SDS011;3464;42.728;23.296;2023-08-07T05:21:35;9.00;;;2.30;;
6850;SDS011;3464;42.728;23.296;2023-08-07T05:24:01;8.33;;;2.10;;
6850;SDS011;3464;42.728;23.296;2023-08-07T05:26:28;8.43;;;2.13;;
6850;SDS011;3464;42.728;23.296;2023-08-07T05:28:54;7.90;;;2.13;;
6850;SDS011;3464;42.728;23.296;2023-08-07T05:31:21;8.57;;;2.10;;
6850;SDS011;3464;42.728;23.296;2023-08-07T05:33:47;11.33;;;2.20;;
6850;SDS011;3464;42.728;23.296;2023-08-07T05:36:15;9.90;;;2.20;;
6850;SDS011;3464;42.728;23.296;2023-08-07T05:38:42;8.20;;;1.83;;
6850;SDS011;3464;42.728;23.296;2023-08-07T05:41:08;8.77;;;1.90;;
6850;SDS011;3464;42.728;23.296;2023-08-07T05:43:35;8.97;;;2.30;;
6850;SDS011;3464;42.728;23.296;2023-08-07T05:46:01;9.40;;;2.07;;
6850;SDS011;3464;42.728;23.296;2023-08-07T05:48:29;11.83;;;2.30;;
6850;SDS011;3464;42.728;23.296;2023-08-07T05:50:55;8.17;;;2.20;;
6850;SDS011;3464;42.728;23.296;2023-08-07T05:53:22;8.90;;;1.90;;
6850;SDS011;3464;42.728;23.296;2023-08-07T05:55:49;9.23;;;2.13;;
6850;SDS011;3464;42.728;23.296;2023-08-07T05:58:15;10.50;;;2.47;;
6850;SDS011;3464;42.728;23.296;2023-08-07T06:00:42;8.50;;;2.47;;
6850;SDS011;3464;42.728;23.296;2023-08-07T06:03:08;9.40;;;2.10;;
6850;SDS011;3464;42.728;23.296;2023-08-07T06:05:35;8.93;;;2.00;;
6850;SDS011;3464;42.728;23.296;2023-08-07T06:08:01;7.70;;;1.80;;
6850;SDS011;3464;42.728;23.296;2023-08-07T06:10:28;7.47;;;1.80;;
6850;SDS011;3464;42.728;23.296;2023-08-07T06:12:54;9.03;;;1.80;;
6850;SDS011;3464;42.728;23.296;2023-08-07T06:15:21;9.87;;;2.03;;
6850;SDS011;3464;42.728;23.296;2023-08-07T06:17:47;7.43;;;1.70;;
6850;SDS011;3464;42.728;23.296;2023-08-07T06:20:14;10.20;;;2.00;;
6850;SDS011;3464;42.728;23.296;2023-08-07T06:22:41;7.80;;;1.90;;
6850;SDS011;3464;42.728;23.296;2023-08-07T06:25:08;9.50;;;2.10;;
6850;SDS011;3464;42.728;23.296;2023-08-07T06:27:35;8.30;;;1.70;;
6850;SDS011;3464;42.728;23.296;2023-08-07T06:30:01;8.00;;;1.90;;
6850;SDS011;3464;42.728;23.296;2023-08-07T06:32:28;8.80;;;1.83;;
6850;SDS011;3464;42.728;23.296;2023-08-07T06:34:55;8.00;;;2.10;;
6850;SDS011;3464;42.728;23.296;2023-08-07T06:37:21;7.90;;;1.80;;
6850;SDS011;3464;42.728;23.296;2023-08-07T06:39:48;9.00;;;1.80;;
6850;SDS011;3464;42.728;23.296;2023-08-07T06:42:14;9.40;;;1.50;;
6850;SDS011;3464;42.728;23.296;2023-08-07T06:44:41;9.60;;;1.60;;
6850;SDS011;3464;42.728;23.296;2023-08-07T06:47:07;7.90;;;1.60;;
6850;SDS011;3464;42.728;23.296;2023-08-07T06:49:34;9.20;;;1.93;;
6850;SDS011;3464;42.728;23.296;2023-08-07T06:52:00;7.67;;;1.50;;
6850;SDS011;3464;42.728;23.296;2023-08-07T06:54:27;7.47;;;1.63;;
6850;SDS011;3464;42.728;23.296;2023-08-07T06:56:53;8.17;;;1.40;;
6850;SDS011;3464;42.728;23.296;2023-08-07T06:59:20;7.70;;;1.80;;
6850;SDS011;3464;42.728;23.296;2023-08-07T07:01:46;8.40;;;1.63;;
6850;SDS011;3464;42.728;23.296;2023-08-07T07:04:13;7.23;;;1.50;;
6850;SDS011;3464;42.728;23.296;2023-08-07T07:06:40;10.10;;;1.40;;
6850;SDS011;3464;42.728;23.296;2023-08-07T07:09:06;7.40;;;1.30;;
6850;SDS011;3464;42.728;23.296;2023-08-07T07:11:33;7.27;;;1.50;;
6850;SDS011;3464;42.728;23.296;2023-08-07T07:13:59;7.10;;;1.50;;
6850;SDS011;3464;42.728;23.296;2023-08-07T07:16:26;8.03;;;1.47;;
6850;SDS011;3464;42.728;23.296;2023-08-07T07:18:53;7.07;;;1.40;;
6850;SDS011;3464;42.728;23.296;2023-08-07T07:21:19;7.63;;;1.60;;
6850;SDS011;3464;42.728;23.296;2023-08-07T07:23:46;7.77;;;1.57;;
6850;SDS011;3464;42.728;23.296;2023-08-07T07:26:12;8.07;;;1.63;;
6850;SDS011;3464;42.728;23.296;2023-08-07T07:28:39;7.57;;;1.40;;
6850;SDS011;3464;42.728;23.296;2023-08-07T07:31:05;7.00;;;1.50;;
6850;SDS011;3464;42.728;23.296;2023-08-07T07:33:32;8.93;;;1.50;;
6850;SDS011;3464;42.728;23.296;2023-08-07T07:35:59;7.03;;;1.40;;
6850;SDS011;3464;42.728;23.296;2023-08-07T07:38:25;9.60;;;1.40;;
6850;SDS011;3464;42.728;23.296;2023-08-07T07:40:52;7.60;;;1.70;;
6850;SDS011;3464;42.728;23.296;2023-08-07T07:43:18;10.43;;;1.37;;
6850;SDS011;3464;42.728;23.296;2023-08-07T07:45:45;8.17;;;1.30;;
6850;SDS011;3464;42.728;23.296;2023-08-07T07:48:11;9.20;;;1.50;;
6850;SDS011;3464;42.728;23.296;2023-08-07T07:50:38;7.50;;;1.60;;
6850;SDS011;3464;42.728;23.296;2023-08-07T07:53:04;7.20;;;1.40;;
6850;SDS011;3464;42.728;23.296;2023-08-07T07:55:31;7.40;;;1.23;;
6850;SDS011;3464;42.728;23.296;2023-08-07T07:57:57;8.23;;;1.40;;
6850;SDS011;3464;42.728;23.296;2023-08-07T08:00:24;8.40;;;1.30;;
6850;SDS011;3464;42.728;23.296;2023-08-07T08:02:51;7.70;;;1.50;;
6850;SDS011;3464;42.728;23.296;2023-08-07T08:05:18;7.17;;;1.30;;
6850;SDS011;3464;42.728;23.296;2023-08-07T08:07:45;9.03;;;1.40;;
6850;SDS011;3464;42.728;23.296;2023-08-07T08:10:12;9.00;;;1.57;;
6850;SDS011;3464;42.728;23.296;2023-08-07T08:12:39;9.20;;;1.70;;
6850;SDS011;3464;42.728;23.296;2023-08-07T08:15:06;9.10;;;1.70;;
6850;SDS011;3464;42.728;23.296;2023-08-07T08:17:33;7.90;;;1.40;;
6850;SDS011;3464;42.728;23.296;2023-08-07T08:19:59;8.07;;;1.60;;
6850;SDS011;3464;42.728;23.296;2023-08-07T08:22:26;7.70;;;1.50;;
6850;SDS011;3464;42.728;23.296;2023-08-07T08:24:55;7.77;;;1.33;;
6850;SDS011;3464;42.728;23.296;2023-08-07T08:27:21;7.80;;;1.60;;
6850;SDS011;3464;42.728;23.296;2023-08-07T08:29:48;8.40;;;1.60;;
6850;SDS011;3464;42.728;23.296;2023-08-07T08:32:15;8.93;;;1.77;;
6850;SDS011;3464;42.728;23.296;2023-08-07T08:34:41;7.80;;;1.30;;
6850;SDS011;3464;42.728;23.296;2023-08-07T08:37:09;9.47;;;1.60;;
6850;SDS011;3464;42.728;23.296;2023-08-07T08:39:36;8.30;;;2.00;;
6850;SDS011;3464;42.728;23.296;2023-08-07T08:42:03;7.90;;;1.50;;
6850;SDS011;3464;42.728;23.296;2023-08-07T08:44:30;8.23;;;1.60;;
6850;SDS011;3464;42.728;23.296;2023-08-07T08:46:58;8.37;;;1.60;;
6850;SDS011;3464;42.728;23.296;2023-08-07T08:49:33;7.87;;;1.70;;
6850;SDS011;3464;42.728;23.296;2023-08-07T08:51:50;7.43;;;1.37;;
6850;SDS011;3464;42.728;23.296;2023-08-07T08:54:16;7.67;;;1.60;;
6850;SDS011;3464;42.728;23.296;2023-08-07T08:56:43;7.97;;;1.80;;
6850;SDS011;3464;42.728;23.296;2023-08-07T08:59:10;7.90;;;1.70;;
6850;SDS011;3464;42.728;23.296;2023-08-07T09:01:37;9.13;;;1.90;;
6850;SDS011;3464;42.728;23.296;2023-08-07T09:04:03;7.87;;;1.67;;
6850;SDS011;3464;42.728;23.296;2023-08-07T09:06:31;8.57;;;1.70;;
6850;SDS011;3464;42.728;23.296;2023-08-07T09:08:57;7.97;;;1.70;;
6850;SDS011;3464;42.728;23.296;2023-08-07T09:11:24;7.80;;;1.73;;
6850;SDS011;3464;42.728;23.296;2023-08-07T09:13:54;7.90;;;1.80;;
6850;SDS011;3464;42.728;23.296;2023-08-07T09:16:20;7.90;;;1.73;;
6850;SDS011;3464;42.728;23.296;2023-08-07T09:18:47;14.77;;;2.63;;
6850;SDS011;3464;42.728;23.296;2023-08-07T09:21:13;8.20;;;1.90;;
6850;SDS011;3464;42.728;23.296;2023-08-07T09:23:41;8.10;;;1.97;;
6850;SDS011;3464;42.728;23.296;2023-08-07T09:26:08;7.80;;;1.57;;
6850;SDS011;3464;42.728;23.296;2023-08-07T09:28:35;9.63;;;2.00;;
6850;SDS011;3464;42.728;23.296;2023-08-07T09:31:01;7.90;;;1.70;;
6850;SDS011;3464;42.728;23.296;2023-08-07T09:33:28;8.23;;;1.93;;
6850;SDS011;3464;42.728;23.296;2023-08-07T09:35:58;9.23;;;1.63;;
6850;SDS011;3464;42.728;23.296;2023-08-07T09:38:24;9.77;;;1.80;;
6850;SDS011;3464;42.728;23.296;2023-08-07T09:40:50;13.13;;;2.07;;
6850;SDS011;3464;42.728;23.296;2023-08-07T09:43:20;8.17;;;1.50;;
6850;SDS011;3464;42.728;23.296;2023-08-07T09:45:47;10.73;;;1.70;;
6850;SDS011;3464;42.728;23.296;2023-08-07T09:48:14;9.00;;;1.87;;
6850;SDS011;3464;42.728;23.296;2023-08-07T09:50:42;8.57;;;1.73;;
6850;SDS011;3464;42.728;23.296;2023-08-07T09:53:08;8.07;;;1.73;;
6850;SDS011;3464;42.728;23.296;2023-08-07T09:55:36;8.73;;;1.63;;
6850;SDS011;3464;42.728;23.296;2023-08-07T09:58:03;8.00;;;1.60;;
6850;SDS011;3464;42.728;23.296;2023-08-07T10:00:33;9.40;;;1.70;;
6850;SDS011;3464;42.728;23.296;2023-08-07T10:03:00;11.03;;;1.80;;
6850;SDS011;3464;42.728;23.296;2023-08-07T10:05:27;10.47;;;2.20;;
6850;SDS011;3464;42.728;23.296;2023-08-07T10:07:54;8.17;;;2.03;;
6850;SDS011;3464;42.728;23.296;2023-08-07T10:10:20;11.07;;;1.77;;
6850;SDS011;3464;42.728;23.296;2023-08-07T10:12:48;8.50;;;1.77;;
6850;SDS011;3464;42.728;23.296;2023-08-07T10:15:16;8.30;;;1.80;;
6850;SDS011;3464;42.728;23.296;2023-08-07T10:17:44;10.47;;;1.70;;
6850;SDS011;3464;42.728;23.296;2023-08-07T10:20:12;9.80;;;1.93;;
6850;SDS011;3464;42.728;23.296;2023-08-07T10:22:38;9.27;;;1.90;;
6850;SDS011;3464;42.728;23.296;2023-08-07T10:25:07;8.37;;;1.80;;
6850;SDS011;3464;42.728;23.296;2023-08-07T10:27:35;8.17;;;1.90;;
6850;SDS011;3464;42.728;23.296;2023-08-07T10:30:02;9.40;;;2.43;;
6850;SDS011;3464;42.728;23.296;2023-08-07T10:32:28;9.13;;;2.20;;
6850;SDS011;3464;42.728;23.296;2023-08-07T10:34:55;9.67;;;2.00;;
6850;SDS011;3464;42.728;23.296;2023-08-07T10:37:37;128.17;;;9.07;;
6850;SDS011;3464;42.728;23.296;2023-08-07T10:40:04;8.60;;;2.20;;
6850;SDS011;3464;42.728;23.296;2023-08-07T10:42:49;8.30;;;1.87;;
6850;SDS011;3464;42.728;23.296;2023-08-07T10:45:00;11.30;;;2.00;;
6850;SDS011;3464;42.728;23.296;2023-08-07T10:47:33;9.17;;;2.03;;
6850;SDS011;3464;42.728;23.296;2023-08-07T10:50:01;9.70;;;2.20;;
6850;SDS011;3464;42.728;23.296;2023-08-07T10:52:30;10.40;;;2.20;;
6850;SDS011;3464;42.728;23.296;2023-08-07T10:54:57;8.20;;;2.23;;
6850;SDS011;3464;42.728;23.296;2023-08-07T10:57:24;11.10;;;1.87;;
6850;SDS011;3464;42.728;23.296;2023-08-07T10:59:51;8.30;;;2.07;;
6850;SDS011;3464;42.728;23.296;2023-08-07T11:02:23;10.00;;;1.93;;
6850;SDS011;3464;42.728;23.296;2023-08-07T11:04:52;8.07;;;2.03;;
6850;SDS011;3464;42.728;23.296;2023-08-07T11:07:24;8.00;;;1.80;;
6850;SDS011;3464;42.728;23.296;2023-08-07T11:09:50;8.87;;;2.10;;
6850;SDS011;3464;42.728;23.296;2023-08-07T11:12:18;10.53;;;2.10;;
6850;SDS011;3464;42.728;23.296;2023-08-07T11:14:44;10.87;;;1.90;;
6850;SDS011;3464;42.728;23.296;2023-08-07T11:17:15;8.90;;;1.80;;
6850;SDS011;3464;42.728;23.296;2023-08-07T11:19:43;9.70;;;2.03;;
6850;SDS011;3464;42.728;23.296;2023-08-07T11:22:10;8.10;;;2.07;;
6850;SDS011;3464;42.728;23.296;2023-08-07T11:24:37;9.90;;;2.10;;
6850;SDS011;3464;42.728;23.296;2023-08-07T11:27:03;8.30;;;1.83;;
6850;SDS011;3464;42.728;23.296;2023-08-07T11:29:32;10.03;;;2.10;;
6850;SDS011;3464;42.728;23.296;2023-08-07T11:31:58;9.63;;;2.00;;
6850;SDS011;3464;42.728;23.296;2023-08-07T11:34:25;9.07;;;2.00;;
6850;SDS011;3464;42.728;23.296;2023-08-07T11:36:51;14.20;;;2.23;;
6850;SDS011;3464;42.728;23.296;2023-08-07T11:39:18;12.43;;;2.00;;
6850;SDS011;3464;42.728;23.296;2023-08-07T11:41:45;8.60;;;2.23;;
6850;SDS011;3464;42.728;23.296;2023-08-07T11:44:11;9.60;;;2.10;;
6850;SDS011;3464;42.728;23.296;2023-08-07T11:46:37;8.20;;;1.87;;
6850;SDS011;3464;42.728;23.296;2023-08-07T11:49:04;10.07;;;2.13;;
6850;SDS011;3464;42.728;23.296;2023-08-07T11:51:33;12.30;;;2.40;;
6850;SDS011;3464;42.728;23.296;2023-08-07T11:54:13;9.07;;;2.20;;
6850;SDS011;3464;42.728;23.296;2023-08-07T11:56:42;9.93;;;1.97;;
6850;SDS011;3464;42.728;23.296;2023-08-07T11:59:10;8.70;;;2.00;;
6850;SDS011;3464;42.728;23.296;2023-08-07T12:01:38;14.73;;;2.57;;
6850;SDS011;3464;42.728;23.296;2023-08-07T12:04:08;8.53;;;2.10;;
6850;SDS011;3464;42.728;23.296;2023-08-07T12:06:35;7.90;;;1.80;;
6850;SDS011;3464;42.728;23.296;2023-08-07T12:09:05;9.60;;;1.80;;
6850;SDS011;3464;42.728;23.296;2023-08-07T12:11:35;8.83;;;2.03;;
6850;SDS011;3464;42.728;23.296;2023-08-07T12:14:00;8.40;;;1.93;;
6850;SDS011;3464;42.728;23.296;2023-08-07T12:16:31;8.20;;;2.07;;
6850;SDS011;3464;42.728;23.296;2023-08-07T12:18:53;8.70;;;2.00;;
6850;SDS011;3464;42.728;23.296;2023-08-07T12:21:21;8.50;;;1.80;;
6850;SDS011;3464;42.728;23.296;2023-08-07T12:23:47;8.53;;;1.80;;
6850;SDS011;3464;42.728;23.296;2023-08-07T12:26:14;8.80;;;1.90;;
6850;SDS011;3464;42.728;23.296;2023-08-07T12:28:40;7.77;;;1.87;;
6850;SDS011;3464;42.728;23.296;2023-08-07T12:31:09;8.20;;;2.00;;
6850;SDS011;3464;42.728;23.296;2023-08-07T12:33:36;8.67;;;2.00;;
6850;SDS011;3464;42.728;23.296;2023-08-07T12:36:02;8.40;;;2.10;;
6850;SDS011;3464;42.728;23.296;2023-08-07T12:38:29;8.70;;;2.17;;
6850;SDS011;3464;42.728;23.296;2023-08-07T12:40:56;7.93;;;2.00;;
6850;SDS011;3464;42.728;23.296;2023-08-07T12:43:22;8.90;;;2.30;;
6850;SDS011;3464;42.728;23.296;2023-08-07T12:45:49;8.57;;;2.00;;
6850;SDS011;3464;42.728;23.296;2023-08-07T12:48:16;11.10;;;2.00;;
6850;SDS011;3464;42.728;23.296;2023-08-07T12:50:42;12.10;;;2.70;;
6850;SDS011;3464;42.728;23.296;2023-08-07T12:53:09;10.87;;;2.10;;
6850;SDS011;3464;42.728;23.296;2023-08-07T12:55:35;11.03;;;2.13;;
6850;SDS011;3464;42.728;23.296;2023-08-07T12:58:02;9.60;;;2.10;;
6850;SDS011;3464;42.728;23.296;2023-08-07T13:00:29;12.73;;;2.43;;
6850;SDS011;3464;42.728;23.296;2023-08-07T13:02:56;10.63;;;2.10;;
6850;SDS011;3464;42.728;23.296;2023-08-07T13:05:31;11.23;;;2.00;;
6850;SDS011;3464;42.728;23.296;2023-08-07T13:07:57;8.57;;;1.90;;
6850;SDS011;3464;42.728;23.296;2023-08-07T13:10:24;10.27;;;2.10;;
6850;SDS011;3464;42.728;23.296;2023-08-07T13:12:53;10.63;;;2.37;;
6850;SDS011;3464;42.728;23.296;2023-08-07T13:15:20;8.70;;;2.20;;
6850;SDS011;3464;42.728;23.296;2023-08-07T13:17:47;11.20;;;2.07;;
6850;SDS011;3464;42.728;23.296;2023-08-07T13:20:13;13.07;;;2.10;;
6850;SDS011;3464;42.728;23.296;2023-08-07T13:22:41;11.27;;;2.00;;
6850;SDS011;3464;42.728;23.296;2023-08-07T13:25:07;8.73;;;2.10;;
6850;SDS011;3464;42.728;23.296;2023-08-07T13:27:34;9.60;;;2.27;;
6850;SDS011;3464;42.728;23.296;2023-08-07T13:30:01;8.90;;;2.10;;
6850;SDS011;3464;42.728;23.296;2023-08-07T13:32:28;9.00;;;1.70;;
6850;SDS011;3464;42.728;23.296;2023-08-07T13:34:54;11.00;;;2.17;;
6850;SDS011;3464;42.728;23.296;2023-08-07T13:37:21;8.93;;;1.80;;
6850;SDS011;3464;42.728;23.296;2023-08-07T13:39:47;10.27;;;2.27;;
6850;SDS011;3464;42.728;23.296;2023-08-07T13:42:14;9.77;;;2.00;;
6850;SDS011;3464;42.728;23.296;2023-08-07T13:44:40;8.70;;;2.10;;
6850;SDS011;3464;42.728;23.296;2023-08-07T13:47:07;10.90;;;2.10;;
6850;SDS011;3464;42.728;23.296;2023-08-07T13:49:36;8.80;;;2.10;;
6850;SDS011;3464;42.728;23.296;2023-08-07T13:52:03;8.23;;;2.10;;
6850;SDS011;3464;42.728;23.296;2023-08-07T13:54:30;9.47;;;2.10;;
6850;SDS011;3464;42.728;23.296;2023-08-07T13:56:56;9.33;;;2.03;;
6850;SDS011;3464;42.728;23.296;2023-08-07T13:59:23;10.83;;;2.47;;
6850;SDS011;3464;42.728;23.296;2023-08-07T14:01:49;10.00;;;2.47;;
6850;SDS011;3464;42.728;23.296;2023-08-07T14:04:17;8.83;;;2.20;;
6850;SDS011;3464;42.728;23.296;2023-08-07T14:06:44;9.13;;;2.30;;
6850;SDS011;3464;42.728;23.296;2023-08-07T14:09:11;9.97;;;2.60;;
6850;SDS011;3464;42.728;23.296;2023-08-07T14:11:38;10.53;;;2.63;;
6850;SDS011;3464;42.728;23.296;2023-08-07T14:14:04;13.07;;;2.33;;
6850;SDS011;3464;42.728;23.296;2023-08-07T14:16:31;10.67;;;3.40;;
6850;SDS011;3464;42.728;23.296;2023-08-07T14:18:58;10.20;;;2.60;;
6850;SDS011;3464;42.728;23.296;2023-08-07T14:21:25;11.90;;;2.40;;
6850;SDS011;3464;42.728;23.296;2023-08-07T14:23:54;11.30;;;2.07;;
6850;SDS011;3464;42.728;23.296;2023-08-07T14:26:23;13.57;;;2.40;;
6850;SDS011;3464;42.728;23.296;2023-08-07T14:28:51;9.93;;;2.80;;
6850;SDS011;3464;42.728;23.296;2023-08-07T14:31:18;9.33;;;2.23;;
6850;SDS011;3464;42.728;23.296;2023-08-07T14:33:45;9.20;;;2.20;;
6850;SDS011;3464;42.728;23.296;2023-08-07T14:36:12;11.00;;;2.67;;
6850;SDS011;3464;42.728;23.296;2023-08-07T14:38:38;8.83;;;2.20;;
6850;SDS011;3464;42.728;23.296;2023-08-07T14:41:05;8.90;;;2.20;;
6850;SDS011;3464;42.728;23.296;2023-08-07T14:43:32;9.93;;;2.70;;
6850;SDS011;3464;42.728;23.296;2023-08-07T14:45:58;10.90;;;2.50;;
6850;SDS011;3464;42.728;23.296;2023-08-07T14:48:25;10.30;;;2.40;;
6850;SDS011;3464;42.728;23.296;2023-08-07T14:50:51;9.50;;;2.77;;
6850;SDS011;3464;42.728;23.296;2023-08-07T14:53:18;14.53;;;3.43;;